createdAt,value
2023-01-04T00:00:00.324Z,0
2023-01-04T00:05:00.337Z,0
2023-01-04T00:10:00.329Z,0
2023-01-04T00:15:00.307Z,0
2023-01-04T00:20:00.310Z,0
2023-01-04T00:25:00.298Z,0
2023-01-04T00:30:00.323Z,0
2023-01-04T00:35:00.331Z,0
2023-01-04T00:40:00.318Z,0
2023-01-04T00:45:00.307Z,0
2023-01-04T00:50:00.306Z,0
2023-01-04T00:55:00.300Z,0
2023-01-04T01:00:00.349Z,0
2023-01-04T01:05:00.299Z,0
2023-01-04T01:10:00.333Z,0
2023-01-04T01:15:00.864Z,0
2023-01-04T01:20:00.313Z,0
2023-01-04T01:25:00.331Z,0
2023-01-04T01:30:00.332Z,0
2023-01-04T01:35:00.316Z,0
2023-01-04T01:40:00.319Z,0
2023-01-04T01:45:00.389Z,0
2023-01-04T01:50:00.305Z,0
2023-01-04T01:55:00.322Z,0
2023-01-04T02:00:00.339Z,0
2023-01-04T02:05:00.303Z,0
2023-01-04T02:10:00.310Z,0
2023-01-04T02:15:00.326Z,0
2023-01-04T02:20:00.393Z,0
2023-01-04T02:25:00.318Z,0
2023-01-04T02:30:00.346Z,0
2023-01-04T02:35:00.311Z,0
2023-01-04T02:40:00.328Z,0
2023-01-04T02:45:00.322Z,0
2023-01-04T02:50:04.735Z,0
2023-01-04T02:55:00.329Z,0
2023-01-04T03:00:00.313Z,0
2023-01-04T03:05:00.349Z,0
2023-01-04T03:10:00.317Z,0
2023-01-04T03:15:00.463Z,0
2023-01-04T03:20:00.295Z,0
2023-01-04T03:25:00.318Z,0
2023-01-04T03:30:00.305Z,0
2023-01-04T03:35:00.303Z,0
2023-01-04T03:40:00.339Z,0
2023-01-04T03:45:05.933Z,0
2023-01-04T03:50:00.307Z,0
2023-01-04T03:55:00.316Z,0
2023-01-04T04:00:00.320Z,0
2023-01-04T04:05:00.327Z,0
2023-01-04T04:10:00.321Z,0
2023-01-04T04:15:00.487Z,0
2023-01-04T04:20:00.313Z,0
2023-01-04T04:25:00.317Z,0
2023-01-04T04:30:00.337Z,0
2023-01-04T04:35:00.320Z,0
2023-01-04T04:40:00.336Z,0
2023-01-04T04:45:00.303Z,0
2023-01-04T04:50:00.326Z,0
2023-01-04T04:55:00.308Z,0
2023-01-04T05:00:00.316Z,0
2023-01-04T05:05:00.312Z,0
2023-01-04T05:10:00.314Z,0
2023-01-04T05:15:00.311Z,0
2023-01-04T05:20:00.346Z,0
2023-01-04T05:25:00.327Z,0
2023-01-04T05:30:00.332Z,0
2023-01-04T05:35:00.324Z,0
2023-01-04T05:40:00.311Z,0
2023-01-04T05:45:00.325Z,0
2023-01-04T05:50:00.316Z,0
2023-01-04T05:55:00.320Z,0
2023-01-04T06:00:00.318Z,0
2023-01-04T06:05:00.351Z,0
2023-01-04T06:10:00.315Z,0
2023-01-04T06:15:00.325Z,0
2023-01-04T06:20:00.312Z,0
2023-01-04T06:25:00.304Z,0
2023-01-04T06:30:00.355Z,0
2023-01-04T06:35:00.315Z,0
2023-01-04T06:40:00.310Z,0
2023-01-04T06:45:00.318Z,0
2023-01-04T06:50:00.320Z,0
2023-01-04T06:55:00.317Z,0
2023-01-04T07:00:00.315Z,0
2023-01-04T07:05:00.415Z,0
2023-01-04T07:10:03.843Z,2
2023-01-04T07:15:00.308Z,2
2023-01-04T07:20:00.328Z,4
2023-01-04T07:25:00.328Z,7
2023-01-04T07:30:00.334Z,9
2023-01-04T07:35:00.305Z,17
2023-01-04T07:40:00.314Z,26
2023-01-04T07:45:00.315Z,30
2023-01-04T07:50:00.313Z,62
2023-01-04T07:55:00.328Z,81
2023-01-04T08:00:00.342Z,64
2023-01-04T08:05:00.609Z,54
2023-01-04T08:10:00.313Z,131
2023-01-04T08:15:00.316Z,160
2023-01-04T08:20:00.306Z,206
2023-01-04T08:25:00.313Z,139
2023-01-04T08:30:00.374Z,162
2023-01-04T08:35:00.315Z,325
2023-01-04T08:40:00.300Z,1151
2023-01-04T08:45:00.377Z,1140
2023-01-04T08:50:04.760Z,690
2023-01-04T08:55:00.318Z,625
2023-01-04T09:00:00.303Z,423
2023-01-04T09:05:00.424Z,376
2023-01-04T09:10:00.327Z,649
2023-01-04T09:15:00.301Z,1205
2023-01-04T09:20:00.316Z,1047
2023-01-04T09:25:00.322Z,1030
2023-01-04T09:30:00.311Z,1345
2023-01-04T09:35:00.317Z,1345
2023-01-04T09:40:00.314Z,1044
2023-01-04T09:45:27.521Z,1515
2023-01-04T09:50:00.370Z,1695
2023-01-04T09:55:04.637Z,1340
2023-01-04T10:00:00.359Z,1719
2023-01-04T10:05:00.312Z,1531
2023-01-04T10:10:00.307Z,1277
2023-01-04T10:15:00.316Z,1247
2023-01-04T10:25:00.319Z,1386
2023-01-04T10:30:00.314Z,1871
2023-01-04T10:35:00.306Z,1871
2023-01-04T10:40:00.320Z,1678
2023-01-04T10:45:06.596Z,1691
2023-01-04T10:50:00.312Z,1691
2023-01-04T10:55:00.316Z,1906
2023-01-04T11:00:00.318Z,1762
2023-01-04T11:05:00.704Z,2006
2023-01-04T11:10:00.332Z,1957
2023-01-04T11:15:00.331Z,1730
2023-01-04T11:20:00.312Z,1762
2023-01-04T11:25:33.662Z,1762
2023-01-04T11:30:00.319Z,1774
2023-01-04T11:35:00.330Z,1963
2023-01-04T11:40:00.328Z,2216
2023-01-04T11:45:00.352Z,1950
2023-01-04T11:50:00.311Z,1450
2023-01-04T11:55:00.342Z,1526
2023-01-04T12:00:00.337Z,1264
2023-01-04T12:05:00.328Z,1177
2023-01-04T12:10:00.307Z,991
2023-01-04T12:15:00.309Z,884
2023-01-04T12:20:00.314Z,1852
2023-01-04T12:25:01.171Z,1910
2023-01-04T12:30:02.256Z,3094
2023-01-04T12:35:00.348Z,1675
2023-01-04T12:40:00.319Z,1513
2023-01-04T12:45:00.301Z,1687
2023-01-04T12:50:00.304Z,1444
2023-01-04T12:55:00.322Z,2404
2023-01-04T13:00:00.340Z,1824
2023-01-04T13:05:43.642Z,1417
2023-01-04T13:10:00.798Z,2067
2023-01-04T13:15:00.336Z,2283
2023-01-04T13:20:00.317Z,2065
2023-01-04T13:25:00.402Z,2166
2023-01-04T13:30:00.342Z,3003
2023-01-04T13:35:00.315Z,3534
2023-01-04T13:40:00.328Z,2669
2023-01-04T13:45:20.854Z,2353
2023-01-04T13:50:00.316Z,1855
2023-01-04T13:55:00.318Z,1555
2023-01-04T14:00:00.350Z,1648
2023-01-04T14:05:00.311Z,2084
2023-01-04T14:10:00.326Z,2084
2023-01-04T14:15:00.356Z,1212
2023-01-04T14:20:00.307Z,1150
2023-01-04T14:25:09.522Z,1070
2023-01-04T14:30:00.338Z,731
2023-01-04T14:35:00.336Z,536
2023-01-04T14:40:00.344Z,353
2023-01-04T14:45:00.327Z,403
2023-01-04T14:50:00.319Z,516
2023-01-04T14:55:00.365Z,580
2023-01-04T15:00:00.319Z,510
2023-01-04T15:05:00.312Z,510
2023-01-04T15:10:00.328Z,510
2023-01-04T15:15:00.314Z,512
2023-01-04T15:20:00.321Z,405
2023-01-04T15:25:00.311Z,251
2023-01-04T15:30:00.302Z,173
2023-01-04T15:35:00.314Z,170
2023-01-04T15:40:03.334Z,139
2023-01-04T15:45:00.301Z,97
2023-01-04T15:50:00.350Z,62
2023-01-04T15:55:00.334Z,38
2023-01-04T16:00:00.380Z,21
2023-01-04T16:05:00.323Z,8
2023-01-04T16:10:00.504Z,5
2023-01-04T16:15:00.321Z,4
2023-01-04T16:20:00.312Z,2
2023-01-04T16:25:10.313Z,0
2023-01-04T16:30:00.424Z,2
2023-01-04T16:35:00.380Z,0
2023-01-04T16:40:08.570Z,0
2023-01-04T16:45:00.377Z,0
2023-01-04T16:50:00.337Z,0
2023-01-04T16:55:00.332Z,2
2023-01-04T17:00:00.379Z,0
2023-01-04T17:05:00.627Z,0
2023-01-04T17:10:00.323Z,0
2023-01-04T17:15:40.856Z,0
2023-01-04T17:20:00.345Z,0
2023-01-04T17:25:00.329Z,0
2023-01-04T17:30:00.349Z,0
2023-01-04T17:35:00.328Z,0
2023-01-04T17:40:00.328Z,0
2023-01-04T17:45:00.335Z,0
2023-01-04T17:50:00.351Z,0
2023-01-04T17:55:00.325Z,0
2023-01-04T18:00:00.372Z,0
2023-01-04T18:05:00.334Z,0
2023-01-04T18:10:00.323Z,0
2023-01-04T18:15:00.323Z,0
2023-01-04T18:20:00.339Z,0
2023-01-04T18:25:00.312Z,0
2023-01-04T18:30:01.013Z,0
2023-01-04T18:35:00.326Z,0
2023-01-04T18:40:00.367Z,0
2023-01-04T18:45:00.344Z,0
2023-01-04T18:50:00.331Z,0
2023-01-04T18:55:00.328Z,0
2023-01-04T19:00:00.312Z,0
2023-01-04T19:05:00.326Z,0
2023-01-04T19:10:00.351Z,0
2023-01-04T19:15:00.322Z,0
2023-01-04T19:20:00.328Z,0
2023-01-04T19:25:00.354Z,0
2023-01-04T19:30:00.331Z,0
2023-01-04T19:35:00.357Z,0
2023-01-04T19:40:00.416Z,0
2023-01-04T19:45:00.350Z,0
2023-01-04T19:50:00.308Z,0
2023-01-04T19:55:00.333Z,0
2023-01-04T20:00:00.323Z,0
2023-01-04T20:05:00.337Z,0
2023-01-04T20:10:00.303Z,0
2023-01-04T20:15:00.318Z,0
2023-01-04T20:20:00.309Z,0
2023-01-04T20:25:00.309Z,0
2023-01-04T20:30:00.333Z,0
2023-01-04T20:35:00.895Z,0
2023-01-04T20:40:00.762Z,0
2023-01-04T20:45:00.799Z,0
2023-01-04T20:50:00.652Z,0
2023-01-04T20:55:00.640Z,0
2023-01-04T21:00:00.741Z,0
2023-01-04T21:05:01.306Z,0
2023-01-04T21:10:00.611Z,0
2023-01-04T21:15:00.672Z,0
2023-01-04T21:20:00.580Z,0
2023-01-04T21:25:00.648Z,0
2023-01-04T21:30:00.664Z,0
2023-01-04T21:35:01.681Z,0
2023-01-04T21:40:00.644Z,0
2023-01-04T21:45:00.748Z,0
2023-01-04T21:50:00.657Z,0
2023-01-04T21:55:00.616Z,0
2023-01-04T22:00:00.588Z,0
2023-01-04T22:05:00.568Z,0
2023-01-04T22:10:00.594Z,0
2023-01-04T22:15:00.608Z,0
2023-01-04T22:20:00.604Z,0
2023-01-04T22:25:00.647Z,0
2023-01-04T22:30:00.851Z,0
2023-01-04T22:35:00.706Z,0
2023-01-04T22:40:00.664Z,0
2023-01-04T22:45:00.561Z,0
2023-01-04T22:50:00.617Z,0
2023-01-04T22:55:00.608Z,0
2023-01-04T23:00:00.584Z,0
2023-01-04T23:05:00.663Z,0
2023-01-04T23:10:00.913Z,0
2023-01-04T23:15:00.672Z,0
2023-01-04T23:20:00.695Z,0
2023-01-04T23:25:01.254Z,0
2023-01-04T23:30:00.652Z,0
2023-01-04T23:35:00.656Z,0
2023-01-04T23:40:00.598Z,0
2023-01-04T23:45:00.693Z,0
2023-01-04T23:50:00.843Z,0
2023-01-04T23:55:00.648Z,0
